x

Santa Monica Basin - 33nm Wsw Of Santa Monica, Ca (46025) Wave Buoy

7:50 - Mon 1st Sep 2014 All times are PDT. -7 hours from GMT.

  • Sig Wave height 3.0ft
  • Swell Direction
  • Peak Period 14s
  • Average Period 5s
  • Wind
    7mph, 9mph gusts
  • Sea Temp 73°f
  • Luft Temp 69°f
  • Sea Pressure 1008.3mb
  • Santa Monica Basin - 33nm Wsw Of Santa Monica, Ca
  • Santa Monica Basin - 33nm Wsw Of Santa Monica, Ca

More Historic Weather Station data

Upgrade to MSW Pro to gain access to the past 30 days of data for over 8000 Wavebouys and Weather Stations around the globe.

Join Pro

Comparision Forecast

View Surf forecast
   
Mo 09/01 7:50 3ft 14s 5s 7 9 mph 1008.3mb 73f 69f
6:50 2.5ft 14s 5s 11
mph
1008mb 73f 70f
5:50 3ft 15s 6s 11 13 mph 1008mb 74f 70f
4:50 2.5ft 14s 6s 11 13 mph 1008.3mb 74f 70f
3:50 2.5ft 15s 6s 9 11 mph 1008.4mb 74f 71f
2:50 2.5ft 15s 5s 9 11 mph 1008.9mb 74f 71f
1:50 2.5ft 14s 5s 7
mph
1009.5mb 74f 70f
12:50 3ft 15s 5s 7
mph
1009.9mb 73f 70f
11:50 3ft 15s 5s 7 9 mph 1010.4mb 73f 70f
10:50 3ft 15s 6s 4 7 mph 1010.5mb 72f 72f
9:50 3ft 15s 5s 7 9 mph 1010.3mb 72f 71f
8:50 3.5ft 15s 6s 9
mph
1009.8mb 71f 71f
7:50 3ft 15s 6s 11 13 mph 1009.6mb 71f 71f
6:50 3ft 15s 6s 9 11 mph 1009.2mb 71f 71f
5:50 3.5ft 15s 6s 11 16 mph 1008.7mb 71f 71f
4:50 3ft 15s 5s 9 13 mph 1008.5mb 71f 71f
3:50 3ft 15s 5s 9 11 mph 1008.4mb 71f 71f
2:50 3.5ft 6s 5s 11 13 mph 1008.5mb 71f 71f
1:50 3.5ft 15s 6s 11 13 mph 1008.5mb 71f 71f
12:50 3.5ft 15s 6s 11 16 mph 1008.6mb 71f 71f
So 08/31 11:50 4ft 6s 6s 7 9 mph 1008.6mb 71f 71f
10:50 4ft 6s 5s 7 9 mph 1008.4mb 71f 70f
9:50 4ft 6s 5s 7
mph
1008.3mb 71f 71f
8:50 4ft 7s 6s  -  mph 1007.9mb 72f 70f
7:50 3.5ft 7s 5s 4 7 mph 1007.4mb 72f 71f
6:50 3.5ft 6s 5s 9 11 mph 1007.3mb 72f 72f
5:50 3.5ft 16s 6s 13 16 mph 1007.4mb 73f 72f
4:50 2.5ft 16s 6s 13 16 mph 1007.4mb 73f 72f
3:50 2.5ft 16s 6s 11
mph
1008mb 73f 71f
2:50 2.5ft 15s 6s 9 11 mph 1008.7mb 73f 71f
1:50 2.5ft 16s 6s 7 9 mph 1009.4mb 73f 72f
12:50 2.5ft 16s 6s 7
mph
1009.8mb 73f 71f
11:50 3ft 16s 6s 4 7 mph 1010.2mb 72f 71f
10:50 3ft 16s 6s 7 9 mph 1010.5mb 71f 71f
9:50 3.5ft 15s 6s 9
mph
1010.1mb 71f 71f
8:50 3ft 15s 6s 9 11 mph 1009.7mb 71f 71f
7:50 3ft 7s 6s 9 11 mph 1009.5mb 71f 71f
6:50 3ft 7s 6s 7 9 mph 1009mb 71f 70f
5:50 3ft 6s 6s 7 9 mph 1008.6mb 71f 71f
4:50 3ft 8s 6s 4 7 mph 1008.1mb 71f 70f
3:50 3.5ft 7s 6s 7
mph
1007.8mb 71f 70f
2:50 3.5ft 7s 6s 9 11 mph 1007.9mb 71f 70f
1:50 3.5ft 8s 6s 4 7 mph 1007.8mb 72f 71f
12:50 3ft 7s 6s 7
mph
1007.6mb 72f 70f
Sa 08/30 11:50 3.5ft 16s 6s 7
mph
1007.6mb 72f 70f
10:50 3ft 12s 6s 2
mph
1007.5mb 72f 70f
9:50 2.5ft 10s 6s 4
mph
1007.7mb 72f 70f
8:50 2.5ft 15s 6s 2 4 mph 1007.3mb 73f 71f
7:50 2.5ft 16s 7s 4 7 mph 1006.7mb 73f 71f
6:50 2.5ft 15s 6s 7 9 mph 1006.8mb 72f 70f
5:50 2.5ft 11s 6s 9 11 mph 1007mb 72f 70f
4:50 2.5ft 15s 6s 9 11 mph 1007.4mb 72f 69f
3:50 3ft 8s 7s 11
mph
1008mb 73f 69f
2:50 3ft 8s 7s 7 9 mph 1008.7mb 73f 69f
1:50 3ft 8s 7s 4 7 mph 1009.3mb 73f 69f
12:50 3ft 8s 6s 4 7 mph 1009.8mb 73f 69f
11:50 3.5ft 8s 6s 4 7 mph 1010.2mb 72f 69f
10:50 3.5ft 8s 6s 4 7 mph 1010.7mb 72f 69f
9:50 4ft 8s 6s 7 11 mph 1010.2mb 72f 68f
8:50 3.5ft 8s 6s 7 9 mph 1009.8mb 71f 68f
7:50 4ft 9s 6s 2 4 mph 1009.9mb 71f 67f
6:50 3.5ft 9s 6s 7 9 mph 1009.4mb 71f 66f
5:50 3.5ft 8s 6s  -  2 mph 1009.1mb 71f 67f
4:50 4ft 6s 6s  -  2 mph 1009mb 71f 67f
3:50 3.5ft 8s 6s  -  2 mph 1008.8mb 71f 67f
2:50 4ft 9s 6s 4
mph
1008.9mb 71f 67f
1:50 4ft 6s 6s 2 4 mph 1009mb 72f 67f
12:50 4ft 9s 6s 7 9 mph 1009.3mb 72f 67f
Fr 08/29 11:50 4.5ft 9s 6s 7 9 mph 1009.3mb 71f 67f
10:50 4.5ft 9s 6s 4 7 mph 1009.7mb 71f 68f
9:50 4.5ft 9s 5s 11 13 mph 1009.6mb 72f 68f
8:50 4.5ft 10s 5s 16 18 mph 1009.5mb 72f 69f
7:50 4.5ft 9s 6s 2 4 mph 1009.3mb 72f 68f
6:50 4ft 9s 6s 9 11 mph 1009.2mb 72f 68f
5:50 4ft 10s 6s 7 9 mph 1009.3mb 73f 70f
4:50 4ft 10s 7s 9 13 mph 1009.7mb 73f 70f
3:50 4ft 10s 7s 9 11 mph 1009.9mb 74f 69f
2:50 3.5ft 10s 7s 7
mph
1010.6mb 73f 68f
1:50 4ft 10s 7s 2 4 mph 1011.2mb 72f 68f
12:50 4ft 10s 7s 4 7 mph 1011.3mb 72f 68f
11:50 4ft 11s 6s 2 4 mph 1011.6mb 72f 67f
10:50 4.5ft 10s 6s 4 7 mph 1012mb 71f 66f
9:50 5ft 10s 6s 9
mph
1012mb 71f 66f
8:50 5ft 10s 6s 11 13 mph 1011.6mb 71f 66f
7:50 5ft 10s 6s 9 11 mph 1011.6mb 71f 67f
6:50 5ft 10s 7s 2 4 mph 1011.5mb 71f 66f
5:50 5.5ft 11s 6s 9 13 mph 1011.1mb 71f 67f
4:50 5.5ft 11s 7s 9 11 mph 1010.9mb 71f 66f
3:50 5.5ft 11s 7s 9 11 mph 1010.9mb 71f 68f